Terminal Aerodrome Forecast
Issued by NWS Melbourne, FL

Home | Current Version | Previous Version | Text Only | Print | Product List | Glossary On
Versions: 1 2 3 4 5 6 7 8 9 10 11 12 13 14 15 16 17 18 19
000
FTUS42 KMLB 191400 AAB
TAFMLB
TAF AMD
KMLB 191456Z 1915/2012 22012KT P6SM SCT005 BKN012
     FM191800 25012KT P6SM VCSH SCT025 BKN035
     FM200100 27010KT P6SM SCT012 BKN020=

USA.gov is the U.S. government's official web portal to all federal, state and local government web resources and services.